createdAt,value
2018-04-14T00:02:04.805Z,7.00
2018-04-14T00:04:32.410Z,6.70
2018-04-14T00:07:00.751Z,7.43
2018-04-14T00:09:28.330Z,7.23
2018-04-14T00:11:55.973Z,7.20
2018-04-14T00:14:23.571Z,8.33
2018-04-14T00:16:52.545Z,8.87
2018-04-14T00:19:20.967Z,8.77
2018-04-14T00:21:48.657Z,7.80
2018-04-14T00:24:17.196Z,8.30
2018-04-14T00:26:45.615Z,8.43
2018-04-14T00:29:13.543Z,8.47
2018-04-14T00:31:42.072Z,8.13
2018-04-14T00:34:09.684Z,8.50
2018-04-14T00:36:37.321Z,9.20
2018-04-14T00:39:05.734Z,8.73
2018-04-14T00:41:33.569Z,8.90
2018-04-14T00:44:02.554Z,8.63
2018-04-14T00:46:31.663Z,8.67
2018-04-14T00:49:00.164Z,8.73
2018-04-14T00:51:27.804Z,8.37
2018-04-14T00:53:56.976Z,7.87
2018-04-14T00:56:24.563Z,8.90
2018-04-14T00:58:52.964Z,8.97
2018-04-14T01:01:20.579Z,9.20
2018-04-14T01:03:48.160Z,9.17
2018-04-14T01:06:16.541Z,9.10
2018-04-14T01:08:46.252Z,9.50
2018-04-14T01:11:15.223Z,10.03
2018-04-14T01:13:43.628Z,9.97
2018-04-14T01:16:11.302Z,10.90
2018-04-14T01:18:42.480Z,9.97
2018-04-14T01:21:10.141Z,10.10
2018-04-14T01:23:37.772Z,10.80
2018-04-14T01:26:05.361Z,11.37
2018-04-14T01:28:32.960Z,10.83
2018-04-14T01:31:01.411Z,10.73
2018-04-14T01:33:29.102Z,11.00
2018-04-14T01:35:57.711Z,10.83
2018-04-14T01:38:25.313Z,12.27
2018-04-14T01:40:52.947Z,11.80
2018-04-14T01:43:20.590Z,12.70
2018-04-14T01:45:48.232Z,12.90
2018-04-14T01:48:15.884Z,13.57
2018-04-14T01:50:44.261Z,12.60
2018-04-14T01:53:12.703Z,13.50
2018-04-14T01:55:40.343Z,12.70
2018-04-14T01:58:07.931Z,13.20
2018-04-14T02:00:36.187Z,13.53
2018-04-14T02:03:03.808Z,15.03
2018-04-14T02:05:32.213Z,15.00
2018-04-14T02:07:59.869Z,14.30
2018-04-14T02:10:27.491Z,14.63
2018-04-14T02:12:55.893Z,17.40
2018-04-14T02:15:23.540Z,16.47
2018-04-14T02:17:51.896Z,17.77
2018-04-14T02:20:19.542Z,17.77
2018-04-14T02:22:47.187Z,17.37
2018-04-14T02:25:14.771Z,17.57
2018-04-14T02:27:42.405Z,17.70
2018-04-14T02:30:10.040Z,17.43
2018-04-14T02:32:37.635Z,16.67
2018-04-14T02:35:06.045Z,17.30
2018-04-14T02:37:34.262Z,17.07
2018-04-14T02:40:02.351Z,16.77
2018-04-14T02:42:30.213Z,16.67
2018-04-14T02:44:57.796Z,15.87
2018-04-14T02:47:25.432Z,17.23
2018-04-14T02:49:53.211Z,15.77
2018-04-14T02:52:20.908Z,17.60
2018-04-14T02:54:48.460Z,17.20
2018-04-14T02:57:16.133Z,17.13
2018-04-14T02:59:44.499Z,17.00
2018-04-14T03:02:12.113Z,16.73
2018-04-14T03:04:40.666Z,18.57
2018-04-14T03:07:08.281Z,17.60
2018-04-14T03:09:35.866Z,17.13
2018-04-14T03:12:04.317Z,16.80
2018-04-14T03:14:31.911Z,18.30
2018-04-14T03:17:00.290Z,17.83
2018-04-14T03:19:27.947Z,18.90
2018-04-14T03:21:56.328Z,18.43
2018-04-14T03:24:25.659Z,19.10
2018-04-14T03:26:53.316Z,18.43
2018-04-14T03:29:20.949Z,18.27
2018-04-14T03:31:49.308Z,19.43
2018-04-14T03:34:17.727Z,19.00
2018-04-14T03:36:45.410Z,20.77
2018-04-14T03:39:13.645Z,20.00
2018-04-14T03:41:42.035Z,20.33
2018-04-14T03:44:09.992Z,22.40
2018-04-14T03:46:38.347Z,20.60
2018-04-14T03:49:05.987Z,21.97
2018-04-14T03:51:33.601Z,20.77
2018-04-14T03:54:01.238Z,21.57
2018-04-14T03:56:29.661Z,21.57
2018-04-14T03:58:57.538Z,21.03
2018-04-14T04:01:25.247Z,20.23
2018-04-14T04:03:54.672Z,16.43
2018-04-14T04:06:22.544Z,17.97
2018-04-14T04:08:50.795Z,18.07
2018-04-14T04:11:19.229Z,17.97
2018-04-14T04:13:46.881Z,18.73
2018-04-14T04:16:15.287Z,19.13
2018-04-14T04:18:54.949Z,21.87
2018-04-14T04:21:35.219Z,24.10
2018-04-14T04:24:15.390Z,25.77
2018-04-14T04:26:43.022Z,28.40
2018-04-14T04:29:12.357Z,29.57
2018-04-14T04:31:40.216Z,27.43
2018-04-14T04:34:07.799Z,26.13
2018-04-14T04:36:35.898Z,26.07
2018-04-14T04:39:03.564Z,25.60
2018-04-14T04:41:31.199Z,25.00
2018-04-14T04:43:58.850Z,23.57
2018-04-14T04:46:26.569Z,20.73
2018-04-14T04:48:55.745Z,22.73
2018-04-14T04:51:23.339Z,24.40
2018-04-14T04:53:50.948Z,25.63
2018-04-14T04:56:18.572Z,29.03
2018-04-14T04:58:46.938Z,29.03
2018-04-14T05:01:14.528Z,30.23
2018-04-14T05:03:42.160Z,30.10
2018-04-14T05:06:09.848Z,29.67
2018-04-14T05:08:37.500Z,32.20
2018-04-14T05:11:05.153Z,34.63
2018-04-14T05:13:32.868Z,38.00
2018-04-14T05:16:01.550Z,40.77
2018-04-14T05:18:29.169Z,39.03
2018-04-14T05:20:56.776Z,39.23
2018-04-14T05:23:24.424Z,42.60
2018-04-14T05:25:52.010Z,42.53
2018-04-14T05:28:20.366Z,45.03
2018-04-14T05:30:48.102Z,46.33
2018-04-14T05:33:15.765Z,48.00
2018-04-14T05:35:43.634Z,48.67
2018-04-14T05:38:11.236Z,45.70
2018-04-14T05:40:39.657Z,48.93
2018-04-14T05:43:07.340Z,45.77
2018-04-14T05:45:34.956Z,45.27
2018-04-14T05:48:02.609Z,43.60
2018-04-14T05:50:31.030Z,41.70
2018-04-14T05:52:58.698Z,47.13
2018-04-14T05:55:26.296Z,45.70
2018-04-14T05:57:54.679Z,43.27
2018-04-14T06:00:23.224Z,38.50
2018-04-14T06:02:50.964Z,37.97
2018-04-14T06:05:18.562Z,35.97
2018-04-14T06:07:46.964Z,39.37
2018-04-14T06:10:16.076Z,41.20
2018-04-14T06:12:43.709Z,42.23
2018-04-14T06:15:12.129Z,38.37
2018-04-14T06:17:39.756Z,37.53
2018-04-14T06:20:08.144Z,35.13
2018-04-14T06:22:35.818Z,32.97
2018-04-14T06:25:03.423Z,34.67
2018-04-14T06:27:31.092Z,35.17
2018-04-14T06:29:58.766Z,37.27
2018-04-14T06:32:27.311Z,35.87
2018-04-14T06:34:54.951Z,35.73
2018-04-14T06:37:22.569Z,39.00
2018-04-14T06:39:50.998Z,39.97
2018-04-14T06:42:18.604Z,38.67
2018-04-14T06:44:46.278Z,41.60
2018-04-14T06:47:13.920Z,41.23
2018-04-14T06:49:41.575Z,41.93
2018-04-14T06:52:10.058Z,44.30
2018-04-14T06:54:37.711Z,45.53
2018-04-14T06:57:05.296Z,45.33
2018-04-14T06:59:33.897Z,44.53
2018-04-14T07:02:01.544Z,47.23
2018-04-14T07:04:30.040Z,48.17
2018-04-14T07:06:57.728Z,47.60
2018-04-14T07:09:25.320Z,49.40
2018-04-14T07:11:52.979Z,49.57
2018-04-14T07:14:20.584Z,48.37
2018-04-14T07:16:48.187Z,46.83
2018-04-14T07:19:15.843Z,46.93
2018-04-14T07:21:44.054Z,46.70
2018-04-14T07:24:13.063Z,46.27
2018-04-14T07:26:40.787Z,44.63
2018-04-14T07:29:08.352Z,44.37
2018-04-14T07:31:36.596Z,45.83
2018-04-14T07:34:04.236Z,42.93
2018-04-14T07:36:31.835Z,43.97
2018-04-14T07:39:00.153Z,44.03
2018-04-14T07:41:27.874Z,42.00
2018-04-14T07:43:55.511Z,43.30
2018-04-14T07:46:23.131Z,43.47
2018-04-14T07:48:51.524Z,44.47
2018-04-14T07:51:19.136Z,45.13
2018-04-14T07:53:46.798Z,45.27
2018-04-14T07:56:14.456Z,44.83
2018-04-14T07:58:42.078Z,47.27
2018-04-14T08:01:09.702Z,44.60
2018-04-14T08:03:38.102Z,46.33
2018-04-14T08:06:05.702Z,45.63
2018-04-14T08:08:33.344Z,48.67
2018-04-14T08:11:00.968Z,47.47
2018-04-14T08:13:29.402Z,46.87
2018-04-14T08:15:57.068Z,49.23
2018-04-14T08:18:24.689Z,49.03
2018-04-14T08:20:53.332Z,49.27
2018-04-14T08:23:20.924Z,48.00
2018-04-14T08:25:48.576Z,49.70
2018-04-14T08:28:16.297Z,50.17
2018-04-14T08:30:43.937Z,49.53
2018-04-14T08:33:11.652Z,49.40
2018-04-14T08:35:40.079Z,49.50
2018-04-14T08:38:07.706Z,49.83
2018-04-14T08:40:35.415Z,48.60
2018-04-14T08:43:03.015Z,47.27
2018-04-14T08:45:31.745Z,47.53
2018-04-14T08:48:00.102Z,47.30
2018-04-14T08:50:27.744Z,48.03
2018-04-14T08:52:56.145Z,47.53
2018-04-14T08:55:23.801Z,49.53
2018-04-14T08:57:51.500Z,50.27
2018-04-14T09:00:19.153Z,46.87
2018-04-14T09:02:47.014Z,47.03
2018-04-14T09:05:14.791Z,45.33
2018-04-14T09:07:42.553Z,44.63
2018-04-14T09:10:11.325Z,45.10
2018-04-14T09:12:38.975Z,44.97
2018-04-14T09:15:07.595Z,43.37
2018-04-14T09:17:36.051Z,44.63
2018-04-14T09:20:03.701Z,43.17
2018-04-14T09:22:31.292Z,43.23
2018-04-14T09:24:59.005Z,43.57
2018-04-14T09:27:28.493Z,43.50
2018-04-14T09:29:56.172Z,43.53
2018-04-14T09:32:24.601Z,39.87
2018-04-14T09:34:52.224Z,39.80
2018-04-14T09:37:21.033Z,38.67
2018-04-14T09:39:49.227Z,38.93
2018-04-14T09:42:16.840Z,38.57
2018-04-14T09:44:45.253Z,38.33
2018-04-14T09:47:12.880Z,37.77
2018-04-14T09:49:40.513Z,35.33
2018-04-14T09:52:08.995Z,35.33
2018-04-14T09:54:37.385Z,34.20
2018-04-14T09:57:05.001Z,33.73
2018-04-14T09:59:33.497Z,31.57
2018-04-14T10:02:02.141Z,30.67
2018-04-14T10:04:30.710Z,30.07
2018-04-14T10:06:58.327Z,27.57
2018-04-14T10:09:26.817Z,27.03
2018-04-14T10:11:54.465Z,29.07
2018-04-14T10:14:22.833Z,27.80
2018-04-14T10:16:51.303Z,25.97
2018-04-14T10:19:19.046Z,24.53
2018-04-14T10:21:47.399Z,24.93
2018-04-14T10:24:15.078Z,24.80
2018-04-14T10:26:42.777Z,25.03
2018-04-14T10:29:10.396Z,23.90
2018-04-14T10:31:38.975Z,24.63
2018-04-14T10:34:06.647Z,24.67
2018-04-14T10:36:34.348Z,24.37
2018-04-14T10:39:02.126Z,24.10
2018-04-14T10:41:30.508Z,26.00
2018-04-14T10:43:58.216Z,24.10
2018-04-14T10:46:25.944Z,24.07
2018-04-14T10:48:53.607Z,23.47
2018-04-14T10:51:21.235Z,24.07
2018-04-14T10:53:48.908Z,23.03
2018-04-14T10:56:17.795Z,22.50
2018-04-14T10:58:45.432Z,22.83
2018-04-14T11:01:14.664Z,23.03
2018-04-14T11:03:42.362Z,23.03
2018-04-14T11:06:10.342Z,22.97
2018-04-14T11:08:38.020Z,22.20
2018-04-14T11:11:05.615Z,23.07
2018-04-14T11:13:35.283Z,23.40
2018-04-14T11:16:02.958Z,23.40
2018-04-14T11:18:30.642Z,23.33
2018-04-14T11:20:59.369Z,22.47
2018-04-14T11:23:27.150Z,23.23
2018-04-14T11:25:54.818Z,22.90
2018-04-14T11:28:23.315Z,23.10
2018-04-14T11:30:50.959Z,23.23
2018-04-14T11:33:18.608Z,22.03
2018-04-14T11:35:46.273Z,22.27
2018-04-14T11:38:14.026Z,22.67
2018-04-14T11:40:41.810Z,22.80
2018-04-14T11:43:09.460Z,21.77
2018-04-14T11:45:37.220Z,21.63
2018-04-14T11:48:04.853Z,20.60
2018-04-14T11:50:33.360Z,20.83
2018-04-14T11:53:01.018Z,20.90
2018-04-14T11:55:28.644Z,21.73
2018-04-14T11:57:57.056Z,21.47
2018-04-14T12:00:24.706Z,21.73
2018-04-14T12:02:53.453Z,19.93
2018-04-14T12:05:21.876Z,20.37
2018-04-14T12:07:49.564Z,20.60
2018-04-14T12:10:17.212Z,22.27
2018-04-14T12:12:44.868Z,22.13
2018-04-14T12:15:12.560Z,21.43
2018-04-14T12:17:40.203Z,23.57
2018-04-14T12:20:07.796Z,25.30
2018-04-14T12:22:35.465Z,23.70
2018-04-14T12:25:03.959Z,28.50
2018-04-14T12:27:31.646Z,29.53
2018-04-14T12:29:59.277Z,26.50
2018-04-14T12:32:26.961Z,28.33
2018-04-14T12:34:54.740Z,27.73
2018-04-14T12:37:22.515Z,28.80
2018-04-14T12:39:50.967Z,29.17
2018-04-14T12:42:18.644Z,28.10
2018-04-14T12:44:46.276Z,28.93
2018-04-14T12:47:13.928Z,29.97
2018-04-14T12:49:41.572Z,28.77
2018-04-14T12:52:10.035Z,33.03
2018-04-14T12:54:38.480Z,29.73
2018-04-14T12:57:06.139Z,30.83
2018-04-14T12:59:33.796Z,29.17
2018-04-14T13:02:01.400Z,31.33
2018-04-14T13:04:29.108Z,29.83
2018-04-14T13:06:57.110Z,30.27
2018-04-14T13:09:24.784Z,28.27
2018-04-14T13:11:52.786Z,30.00
2018-04-14T13:14:20.429Z,26.90
2018-04-14T13:16:48.071Z,26.90
2018-04-14T13:19:15.732Z,27.57
2018-04-14T13:21:44.077Z,25.87
2018-04-14T13:24:11.685Z,25.20
2018-04-14T13:26:39.535Z,27.60
2018-04-14T13:29:07.770Z,29.37
2018-04-14T13:31:35.401Z,25.23
2018-04-14T13:34:04.476Z,26.57
2018-04-14T13:36:32.988Z,27.50
2018-04-14T13:39:01.222Z,23.93
2018-04-14T13:41:30.227Z,23.97
2018-04-14T13:43:57.903Z,23.70
2018-04-14T13:46:26.325Z,22.77
2018-04-14T13:48:54.062Z,23.33
2018-04-14T13:51:22.057Z,21.90
2018-04-14T13:53:49.727Z,22.27
2018-04-14T13:56:17.361Z,23.30
2018-04-14T13:58:45.214Z,22.40
2018-04-14T14:01:12.866Z,21.67
2018-04-14T14:03:41.256Z,21.07
2018-04-14T14:06:08.880Z,22.47
2018-04-14T14:08:36.518Z,23.83
2018-04-14T14:11:04.176Z,23.53
2018-04-14T14:13:31.898Z,22.50
2018-04-14T14:16:00.280Z,23.70
2018-04-14T14:18:27.949Z,24.17
2018-04-14T14:20:55.596Z,22.47
2018-04-14T14:23:23.231Z,24.43
2018-04-14T14:25:51.007Z,24.73
2018-04-14T14:28:19.429Z,25.93
2018-04-14T14:30:47.135Z,28.00
2018-04-14T14:33:15.259Z,27.40
2018-04-14T14:35:42.847Z,25.97
2018-04-14T14:38:10.491Z,25.50
2018-04-14T14:40:38.163Z,23.90
2018-04-14T14:43:05.969Z,24.67
2018-04-14T14:45:34.547Z,26.97
2018-04-14T14:48:02.259Z,27.17
2018-04-14T14:50:29.897Z,27.37
2018-04-14T14:52:57.617Z,26.50
2018-04-14T14:55:25.325Z,27.43
2018-04-14T14:57:52.927Z,27.37
2018-04-14T15:00:20.539Z,28.87
2018-04-14T15:02:48.204Z,26.97
2018-04-14T15:05:15.869Z,29.97
2018-04-14T15:07:43.528Z,29.63
2018-04-14T15:10:11.217Z,29.50
2018-04-14T15:12:38.847Z,29.27
2018-04-14T15:15:06.537Z,28.63
2018-04-14T15:17:34.165Z,29.10
2018-04-14T15:20:01.818Z,29.00
2018-04-14T15:22:29.478Z,27.23
2018-04-14T15:24:57.109Z,27.60
2018-04-14T15:27:25.557Z,24.67
2018-04-14T15:29:53.216Z,25.10
2018-04-14T15:32:20.881Z,25.13
2018-04-14T15:34:48.536Z,24.83
2018-04-14T15:37:16.181Z,24.43
2018-04-14T15:39:43.876Z,24.87
2018-04-14T15:42:11.518Z,24.13
2018-04-14T15:44:39.120Z,24.90
2018-04-14T15:47:06.832Z,24.07
2018-04-14T15:49:34.477Z,24.37
2018-04-14T15:52:02.079Z,23.50
2018-04-14T15:54:29.722Z,23.80
2018-04-14T15:56:57.311Z,24.30
2018-04-14T15:59:24.952Z,23.97
2018-04-14T16:01:53.521Z,23.93
2018-04-14T16:04:21.196Z,24.50
2018-04-14T16:06:48.827Z,24.03
2018-04-14T16:09:16.533Z,23.77
2018-04-14T16:11:44.178Z,26.03
2018-04-14T16:14:11.795Z,27.53
2018-04-14T16:16:39.415Z,27.60
2018-04-14T16:19:07.015Z,30.20
2018-04-14T16:21:34.643Z,30.40
2018-04-14T16:24:02.273Z,31.03
2018-04-14T16:26:29.855Z,31.50
2018-04-14T16:28:57.500Z,31.30
2018-04-14T16:31:25.122Z,28.93
2018-04-14T16:33:52.770Z,34.97
2018-04-14T16:36:22.053Z,28.67
2018-04-14T16:38:51.204Z,28.80
2018-04-14T16:41:19.073Z,28.77
2018-04-14T16:43:46.739Z,28.43
2018-04-14T16:46:14.374Z,30.77
2018-04-14T16:48:42.982Z,26.53
2018-04-14T16:51:12.895Z,27.33
2018-04-14T16:53:41.315Z,26.77
2018-04-14T16:56:10.104Z,26.93
2018-04-14T16:58:39.785Z,26.13
2018-04-14T17:01:07.442Z,26.93
2018-04-14T17:03:37.346Z,25.80
2018-04-14T17:06:05.785Z,26.00
2018-04-14T17:08:34.245Z,26.17
2018-04-14T17:11:03.517Z,27.03
2018-04-14T17:13:31.186Z,25.33
2018-04-14T17:15:58.786Z,25.30
2018-04-14T17:18:26.547Z,26.87
2018-04-14T17:20:55.906Z,26.93
2018-04-14T17:23:24.799Z,27.50
2018-04-14T17:25:53.097Z,27.57
2018-04-14T17:28:20.778Z,27.50
2018-04-14T17:30:49.424Z,33.30
2018-04-14T17:33:17.154Z,32.63
2018-04-14T17:35:45.401Z,35.97
2018-04-14T17:38:13.429Z,38.33
2018-04-14T17:40:41.111Z,38.47
2018-04-14T17:43:09.520Z,36.53
2018-04-14T17:45:37.165Z,38.17
2018-04-14T17:48:05.558Z,38.37
2018-04-14T17:50:33.990Z,38.53
2018-04-14T17:53:01.656Z,40.20
2018-04-14T17:55:29.366Z,41.37
2018-04-14T17:57:57.083Z,39.83
2018-04-14T18:00:24.700Z,40.20
2018-04-14T18:02:52.409Z,39.13
2018-04-14T18:05:20.035Z,38.60
2018-04-14T18:07:47.635Z,41.17
2018-04-14T18:10:16.090Z,40.03
2018-04-14T18:12:43.702Z,42.90
2018-04-14T18:15:11.309Z,41.27
2018-04-14T18:17:38.919Z,42.03
2018-04-14T18:20:06.552Z,40.97
2018-04-14T18:22:34.962Z,39.30
2018-04-14T18:25:03.421Z,40.83
2018-04-14T18:27:31.851Z,42.90
2018-04-14T18:29:59.484Z,44.63
2018-04-14T18:32:27.152Z,42.30
2018-04-14T18:34:54.831Z,43.17
2018-04-14T18:37:22.468Z,44.27
2018-04-14T18:39:50.817Z,42.70
2018-04-14T18:42:19.212Z,43.10
2018-04-14T18:44:46.991Z,43.77
2018-04-14T18:47:14.706Z,38.87
2018-04-14T18:49:42.713Z,40.40
2018-04-14T18:52:10.364Z,41.33
2018-04-14T18:54:38.052Z,40.47
2018-04-14T18:57:05.714Z,38.07
2018-04-14T18:59:33.377Z,39.17
2018-04-14T19:02:01.107Z,38.57
2018-04-14T19:04:29.041Z,40.13
2018-04-14T19:06:56.663Z,38.07
2018-04-14T19:09:24.333Z,39.67
2018-04-14T19:11:51.986Z,41.70
2018-04-14T19:14:19.650Z,39.37
2018-04-14T19:16:47.345Z,41.47
2018-04-14T19:19:14.982Z,39.43
2018-04-14T19:21:42.637Z,41.70
2018-04-14T19:24:10.804Z,39.57
2018-04-14T19:26:38.570Z,41.90
2018-04-14T19:29:06.324Z,37.60
2018-04-14T19:31:33.994Z,37.77
2018-04-14T19:34:01.700Z,38.03
2018-04-14T19:36:29.336Z,40.03
2018-04-14T19:38:56.964Z,38.83
2018-04-14T19:41:24.770Z,38.70
2018-04-14T19:43:52.424Z,37.70
2018-04-14T19:46:22.032Z,40.40
2018-04-14T19:48:49.692Z,36.93
2018-04-14T19:51:17.297Z,36.43
2018-04-14T19:53:45.682Z,36.97
2018-04-14T19:56:13.372Z,38.83
2018-04-14T19:58:41.030Z,39.10
2018-04-14T20:01:08.728Z,40.87
2018-04-14T20:03:37.100Z,37.47
2018-04-14T20:06:04.762Z,35.40
2018-04-14T20:08:32.447Z,36.27
2018-04-14T20:11:01.370Z,37.23
2018-04-14T20:13:28.975Z,36.33
2018-04-14T20:15:56.665Z,36.63
2018-04-14T20:18:25.059Z,32.53
2018-04-14T20:20:52.781Z,35.87
2018-04-14T20:23:20.577Z,37.30
2018-04-14T20:25:48.982Z,33.90
2018-04-14T20:28:16.585Z,34.73
2018-04-14T20:30:44.249Z,38.07
2018-04-14T20:33:11.893Z,35.67
2018-04-14T20:35:40.166Z,35.47
2018-04-14T20:38:07.764Z,34.67
2018-04-14T20:40:35.372Z,34.70
2018-04-14T20:43:03.000Z,33.97
2018-04-14T20:45:32.270Z,35.07
2018-04-14T20:48:00.680Z,36.80
2018-04-14T20:50:28.318Z,35.77
2018-04-14T20:52:56.763Z,35.03
2018-04-14T20:55:24.430Z,35.73
2018-04-14T20:57:52.015Z,36.30
2018-04-14T21:00:20.430Z,36.43
2018-04-14T21:02:48.080Z,36.73
2018-04-14T21:05:15.742Z,37.63
2018-04-14T21:07:43.434Z,37.73
2018-04-14T21:10:11.024Z,38.37
2018-04-14T21:12:38.649Z,38.33
2018-04-14T21:15:06.691Z,38.13
2018-04-14T21:17:34.313Z,40.57
2018-04-14T21:20:01.946Z,41.07
2018-04-14T21:22:29.588Z,42.20
2018-04-14T21:24:57.228Z,43.00
2018-04-14T21:27:24.875Z,43.43
2018-04-14T21:29:56.935Z,42.23
2018-04-14T21:32:26.566Z,44.83
2018-04-14T21:34:54.194Z,42.43
2018-04-14T21:37:22.600Z,46.07
2018-04-14T21:39:50.261Z,46.33
2018-04-14T21:42:17.896Z,47.63
2018-04-14T21:44:47.105Z,48.70
2018-04-14T21:47:15.660Z,47.27
2018-04-14T21:49:47.747Z,51.47
2018-04-14T21:52:16.158Z,48.47
2018-04-14T21:54:43.792Z,48.80
2018-04-14T21:57:11.500Z,45.27
2018-04-14T21:59:39.150Z,51.70
2018-04-14T22:02:06.747Z,52.33
2018-04-14T22:04:36.096Z,51.00
2018-04-14T22:07:04.510Z,50.00
2018-04-14T22:09:32.140Z,51.67
2018-04-14T22:12:02.028Z,51.20
2018-04-14T22:14:34.203Z,51.87
2018-04-14T22:17:01.869Z,52.70
2018-04-14T22:19:29.532Z,52.43
2018-04-14T22:21:57.232Z,51.07
2018-04-14T22:24:25.289Z,51.53
2018-04-14T22:26:52.917Z,54.40
2018-04-14T22:29:21.374Z,56.63
2018-04-14T22:31:49.609Z,51.93
2018-04-14T22:34:18.219Z,52.73
2018-04-14T22:36:45.864Z,50.60
2018-04-14T22:39:13.827Z,50.67
2018-04-14T22:41:41.556Z,55.13
2018-04-14T22:44:09.148Z,53.00
2018-04-14T22:46:36.784Z,52.63
2018-04-14T22:49:04.668Z,52.70
2018-04-14T22:51:34.609Z,54.07
2018-04-14T22:54:02.333Z,52.57
2018-04-14T22:56:29.960Z,53.07
2018-04-14T22:58:57.656Z,51.00
2018-04-14T23:01:25.782Z,54.57
2018-04-14T23:03:54.196Z,54.73
2018-04-14T23:06:21.936Z,52.07
2018-04-14T23:08:50.360Z,54.20
2018-04-14T23:11:18.007Z,56.03
2018-04-14T23:13:45.620Z,55.30
2018-04-14T23:16:14.025Z,54.20
2018-04-14T23:18:41.642Z,58.43
2018-04-14T23:21:09.249Z,57.27
2018-04-14T23:23:36.855Z,55.83
2018-04-14T23:26:04.497Z,56.47
2018-04-14T23:28:32.153Z,57.67
2018-04-14T23:31:00.521Z,56.93
2018-04-14T23:33:28.738Z,59.07
2018-04-14T23:35:57.163Z,58.03
2018-04-14T23:38:24.766Z,60.63
2018-04-14T23:40:52.533Z,58.97
2018-04-14T23:43:20.149Z,55.47
2018-04-14T23:45:47.758Z,56.87
2018-04-14T23:48:15.722Z,57.00
2018-04-14T23:50:43.389Z,55.00
2018-04-14T23:53:11.044Z,56.37
2018-04-14T23:55:38.671Z,55.30
2018-04-14T23:58:06.273Z,55.83
